Time;durP1;ratioP1;P1;durP2;ratioP2;P2;SDS_P1;SDS_P2;PMS_P1;PMS_P2;Temp;Humidity;BMP_temperature;BMP_pressure;BME280_temperature;BME280_humidity;BME280_pressure;Samples;Min_cycle;Max_cycle;Signal;HPM_P1;HPM_P2
2021/03/25 00:01:48;;;;;;;71.97;35.85;;;;;;;10.61;58.04;102147.63;5088235;28;20107;-85
2021/03/25 00:04:15;;;;;;;62.30;33.53;;;;;;;10.54;57.97;102145.84;5089954;28;20123;-81
2021/03/25 00:06:46;;;;;;;70.43;35.97;;;;;;;10.55;58.08;102143.19;5089637;28;20028;-82
2021/03/25 00:09:20;;;;;;;67.30;34.30;;;;;;;10.50;58.21;102137.91;5090604;28;20043;-81
2021/03/25 00:11:47;;;;;;;69.50;35.85;;;;;;;10.48;58.05;102141.41;5086746;28;20349;-82
2021/03/25 00:14:14;;;;;;;59.05;31.67;;;;;;;10.46;58.14;102132.59;5089693;28;20065;-82
2021/03/25 00:16:41;;;;;;;65.03;33.58;;;;;;;10.45;58.43;102130.81;5089448;28;21435;-82
2021/03/25 00:19:08;;;;;;;68.70;36.10;;;;;;;10.43;58.36;102128.16;5090259;28;20063;-81
2021/03/25 00:21:36;;;;;;;59.90;33.33;;;;;;;10.41;58.35;102134.34;5089062;28;20024;-82
2021/03/25 00:24:04;;;;;;;69.85;34.95;;;;;;;10.42;58.50;102131.69;5088277;28;20028;-82
2021/03/25 00:26:31;;;;;;;72.85;35.45;;;;;;;10.38;58.74;102132.56;5088559;28;20044;-82
2021/03/25 00:28:58;;;;;;;75.32;34.67;;;;;;;10.35;58.51;102133.44;5084703;28;20475;-82
2021/03/25 00:31:24;;;;;;;70.15;35.17;;;;;;;10.32;58.91;102136.06;5074904;28;20047;-81
2021/03/25 00:33:51;;;;;;;67.07;34.55;;;;;;;10.29;59.03;102137.81;5083649;28;20078;-82
2021/03/25 00:36:20;;;;;;;71.03;33.97;;;;;;;10.22;59.12;102138.66;5081621;28;20028;-82
2021/03/25 00:38:47;;;;;;;69.35;36.03;;;;;;;10.20;59.23;102141.31;5084677;28;20035;-81
2021/03/25 00:41:14;;;;;;;65.80;33.80;;;;;;;10.17;59.48;102130.75;5080858;28;20028;-82
2021/03/25 00:43:41;;;;;;;64.22;33.50;;;;;;;10.13;59.21;102136.88;5089561;28;20431;-82
2021/03/25 00:46:07;;;;;;;72.35;36.08;;;;;;;10.06;59.87;102138.66;5074872;28;20032;-82
2021/03/25 00:48:34;;;;;;;70.72;35.38;;;;;;;10.05;59.71;102126.28;5077001;28;20496;-82
2021/03/25 00:51:01;;;;;;;68.15;33.55;;;;;;;10.04;59.45;102124.50;5091601;28;20080;-81
2021/03/25 00:53:31;;;;;;;69.05;37.08;;;;;;;10.04;59.48;102122.75;5091130;28;20020;-82
2021/03/25 00:55:58;;;;;;;67.38;35.38;;;;;;;10.00;59.59;102117.44;5083855;28;20028;-81
2021/03/25 00:58:25;;;;;;;71.43;38.08;;;;;;;9.97;59.72;102125.34;5083118;28;20029;-82
2021/03/25 01:00:52;;;;;;;68.75;37.10;;;;;;;9.93;59.90;102121.84;5060431;28;20033;-82
2021/03/25 01:03:22;;;;;;;77.38;38.88;;;;;;;9.93;60.14;102126.25;5091672;28;20107;-82
2021/03/25 01:05:48;;;;;;;80.95;38.95;;;;;;;9.90;60.00;102119.16;5075136;28;20356;-81
2021/03/25 01:08:15;;;;;;;72.57;38.03;;;;;;;9.91;60.07;102120.94;5085536;28;20121;-82
2021/03/25 01:10:45;;;;;;;73.55;37.42;;;;;;;9.93;60.03;102121.84;5091273;28;20032;-82
2021/03/25 01:16:04;;;;;;;86.10;42.80;;;;;;;9.87;60.08;102113.88;5090422;28;20449;-80
2021/03/25 01:18:30;;;;;;;85.10;39.33;;;;;;;9.87;60.56;102111.25;5070477;28;20079;-81
2021/03/25 01:20:57;;;;;;;77.00;38.58;;;;;;;9.87;60.91;102108.59;5065642;28;20033;-80
2021/03/25 01:23:24;;;;;;;97.80;44.40;;;;;;;9.91;60.58;102109.47;5056533;28;20108;-80
2021/03/25 01:25:51;;;;;;;80.93;40.42;;;;;;;9.96;60.83;102107.72;5069611;28;20502;-82
2021/03/25 01:28:18;;;;;;;81.20;41.80;;;;;;;10.00;60.98;102101.56;5062686;28;20047;-81
2021/03/25 01:30:46;;;;;;;85.25;41.53;;;;;;;10.06;60.51;102100.69;5055116;28;20469;-81
2021/03/25 01:33:19;;;;;;;82.38;41.63;;;;;;;10.15;60.71;102100.69;5067150;28;20036;-83
2021/03/25 01:35:46;;;;;;;93.22;43.72;;;;;;;10.08;60.57;102104.22;5050780;28;20041;-79
2021/03/25 01:38:15;;;;;;;78.10;40.00;;;;;;;10.11;60.81;102097.16;5061006;28;20090;-80
2021/03/25 01:40:46;;;;;;;83.13;42.20;;;;;;;10.13;60.93;102094.50;5055510;28;20029;-80
2021/03/25 01:43:33;;;;;;;86.65;45.50;;;;;;;10.22;60.76;102102.50;5066349;28;20056;-80
2021/03/25 01:48:44;;;;;;;90.13;44.15;;;;;;;10.18;61.05;102084.81;5086879;28;20450;-80
2021/03/25 01:51:50;;;;;;;92.40;45.38;;;;;;;10.30;60.98;102092.78;5069974;28;20094;-81
2021/03/25 02:00:37;;;;;;;94.90;49.78;;;;;;;10.22;61.51;102091.91;5087459;28;20449;-81
2021/03/25 02:09:10;;;;;;;82.75;42.78;;;;;;;10.28;61.54;102097.19;5192573;27;20606;-80
2021/03/25 02:12:06;;;;;;;90.15;43.88;;;;;;;10.42;61.03;102094.59;5100061;27;901380;-81
2021/03/25 02:17:25;;;;;;;91.43;46.40;;;;;;;10.37;61.61;102085.75;5127655;27;20383;-80
2021/03/25 02:31:31;;;;;;;98.50;46.90;;;;;;;10.56;61.46;102083.13;5090435;28;20171;-80
2021/03/25 02:34:01;;;;;;;92.40;46.33;;;;;;;10.59;61.37;102084.00;5068888;28;20499;-80
2021/03/25 02:36:37;;;;;;;93.63;47.72;;;;;;;10.67;61.58;102091.94;5059451;28;20032;-80
2021/03/25 02:39:09;;;;;;;92.38;44.22;;;;;;;10.66;61.55;102080.44;5066569;28;20028;-80
2021/03/25 02:41:42;;;;;;;95.75;44.92;;;;;;;10.73;61.36;102083.09;5054840;28;20056;-81
2021/03/25 02:44:13;;;;;;;85.00;44.15;;;;;;;10.71;61.14;102082.25;5049967;28;20109;-79
2021/03/25 02:46:45;;;;;;;98.95;47.85;;;;;;;10.74;61.34;102084.88;5063795;28;20464;-80
2021/03/25 02:49:16;;;;;;;89.72;44.38;;;;;;;10.73;61.55;102073.41;5052978;28;20034;-80
2021/03/25 02:51:52;;;;;;;85.97;44.35;;;;;;;10.77;61.36;102080.44;5068436;28;20021;-80
2021/03/25 02:54:20;;;;;;;91.03;45.05;;;;;;;10.76;61.35;102077.81;5061440;28;20040;-80
2021/03/25 02:56:53;;;;;;;91.53;45.28;;;;;;;10.75;61.34;102081.34;5064433;28;20048;-80
2021/03/25 02:59:26;;;;;;;86.10;44.15;;;;;;;10.75;61.29;102086.63;5049768;28;20037;-80
2021/03/25 03:01:57;;;;;;;93.90;46.80;;;;;;;10.70;61.77;102088.41;5056776;28;20354;-81
2021/03/25 03:04:30;;;;;;;94.00;45.50;;;;;;;10.72;61.63;102084.00;5080384;22;20504;-84
2021/03/25 03:07:05;;;;;;;89.00;46.92;;;;;;;10.77;61.34;102093.72;5064815;28;20032;-84
2021/03/25 03:09:38;;;;;;;91.40;47.95;;;;;;;10.76;61.70;102077.81;5070523;28;20036;-84
2021/03/25 03:12:13;;;;;;;95.82;46.95;;;;;;;10.77;61.92;102090.19;5072441;28;20035;-84
2021/03/25 03:14:48;;;;;;;91.30;46.53;;;;;;;10.78;61.61;102087.53;5069887;28;20029;-83
2021/03/25 03:17:29;;;;;;;100.10;49.33;;;;;;;10.72;62.34;102089.31;5050534;28;20092;-83
2021/03/25 03:22:39;;;;;;;101.57;47.50;;;;;;;10.71;62.16;102080.47;5064230;28;20162;-84
2021/03/25 03:25:21;;;;;;;104.07;49.42;;;;;;;10.73;62.63;102077.78;5045751;28;20033;-84
2021/03/25 03:27:51;;;;;;;96.03;49.63;;;;;;;10.77;62.27;102074.28;5046294;28;20032;-83
2021/03/25 03:30:42;;;;;;;107.35;50.00;;;;;;;10.76;62.52;102075.16;5043364;28;20018;-84
2021/03/25 03:33:19;;;;;;;96.18;50.72;;;;;;;10.81;62.37;102079.56;5042421;28;20117;-84
2021/03/25 03:35:53;;;;;;;97.63;45.63;;;;;;;10.75;63.12;102081.34;5042905;28;20025;-84
2021/03/25 03:38:28;;;;;;;103.15;48.13;;;;;;;10.78;62.74;102078.66;5040991;28;20025;-84
2021/03/25 03:40:56;;;;;;;91.00;47.17;;;;;;;10.81;62.69;102074.25;5041181;28;20026;-84
2021/03/25 03:43:23;;;;;;;96.38;48.30;;;;;;;10.79;62.62;102077.78;5040994;28;20033;-84
2021/03/25 03:45:59;;;;;;;114.28;54.08;;;;;;;10.82;62.76;102077.81;5037699;28;20037;-83
2021/03/25 03:51:26;;;;;;;104.28;49.67;;;;;;;10.88;63.09;102080.44;5091166;27;20400;-84
2021/03/25 03:53:55;;;;;;;111.45;48.70;;;;;;;10.87;63.04;102070.72;5067765;28;20036;-84
2021/03/25 03:56:32;;;;;;;102.32;48.70;;;;;;;10.94;62.94;102071.59;5058780;28;20056;-84
2021/03/25 03:59:05;;;;;;;97.55;47.25;;;;;;;10.94;62.88;102072.50;5059017;28;20026;-84
2021/03/25 04:04:26;;;;;;;104.88;52.25;;;;;;;10.88;63.16;102061.88;5077284;27;20388;-84
2021/03/25 04:06:59;;;;;;;101.93;50.00;;;;;;;10.91;63.63;102061.88;5066419;28;20061;-84
2021/03/25 04:09:34;;;;;;;104.22;48.83;;;;;;;10.92;63.47;102068.94;5067359;28;20380;-84
2021/03/25 04:12:11;;;;;;;117.40;55.35;;;;;;;10.87;63.46;102065.41;5066641;28;20051;-82
2021/03/25 04:14:47;;;;;;;106.07;50.17;;;;;;;10.91;63.41;102061.88;5069479;28;20032;-84
2021/03/25 04:17:19;;;;;;;107.55;50.80;;;;;;;10.92;63.35;102063.63;5069406;28;20060;-84
2021/03/25 04:19:49;;;;;;;104.75;49.75;;;;;;;10.90;63.75;102065.41;5067183;28;20024;-83
2021/03/25 04:22:21;;;;;;;111.43;50.75;;;;;;;10.95;63.34;102061.00;5069380;28;20565;-84
2021/03/25 04:24:59;;;;;;;117.63;52.08;;;;;;;10.96;63.71;102057.44;5069561;28;20078;-83
2021/03/25 04:27:32;;;;;;;104.60;49.00;;;;;;;10.97;63.48;102051.25;5067109;28;20075;-83
2021/03/25 04:30:06;;;;;;;103.95;48.47;;;;;;;10.96;63.50;102052.13;5069206;28;20051;-83
2021/03/25 04:32:33;;;;;;;105.32;47.65;;;;;;;10.96;63.57;102054.78;5069108;28;20033;-83
2021/03/25 04:35:00;;;;;;;110.88;50.47;;;;;;;10.96;63.57;102060.09;5066298;22;20052;-82
2021/03/25 04:37:29;;;;;;;111.38;49.55;;;;;;;10.97;63.87;102053.03;5047249;28;20483;-82
2021/03/25 04:40:00;;;;;;;105.20;50.67;;;;;;;10.93;63.82;102054.81;5048400;28;20379;-82
2021/03/25 04:42:28;;;;;;;113.25;53.20;;;;;;;10.94;63.73;102051.28;5046012;28;20456;-82
2021/03/25 04:45:07;;;;;;;110.75;50.85;;;;;;;11.02;63.78;102039.78;5042654;28;20105;-82
2021/03/25 04:47:42;;;;;;;105.38;49.05;;;;;;;11.00;63.74;102053.91;5041500;28;20046;-83
2021/03/25 04:53:21;;;;;;;109.72;52.22;;;;;;;10.90;64.49;102061.88;5076977;27;20874;-82
2021/03/25 04:55:48;;;;;;;113.10;52.15;;;;;;;10.83;64.13;102053.06;5044060;28;20041;-81
2021/03/25 04:58:24;;;;;;;122.90;56.88;;;;;;;10.87;63.90;102052.16;5046222;28;20029;-82
2021/03/25 05:00:50;;;;;;;103.18;49.28;;;;;;;10.80;64.01;102042.44;5044596;28;20452;-81
2021/03/25 05:03:21;;;;;;;120.53;53.25;;;;;;;10.84;64.16;102049.50;5043509;28;20033;-81
2021/03/25 05:05:48;;;;;;;119.57;54.25;;;;;;;10.82;63.87;102048.63;5046629;28;20034;-82
2021/03/25 05:08:27;;;;;;;106.20;51.55;;;;;;;10.88;63.93;102045.97;5046069;28;20025;-80
2021/03/25 05:13:41;;;;;;;113.47;50.58;;;;;;;10.84;63.94;102038.91;5076442;27;20390;-81
2021/03/25 05:16:31;;;;;;;113.00;50.38;;;;;;;10.83;63.94;102039.81;5059080;28;20104;-82
2021/03/25 05:24:33;;;;;;;108.03;48.88;;;;;;;10.76;63.80;102035.41;5058950;28;20718;-81
2021/03/25 05:27:06;;;;;;;111.68;51.67;;;;;;;10.65;64.31;102043.34;5048646;28;20043;-81
2021/03/25 05:29:33;;;;;;;109.65;49.80;;;;;;;10.62;63.96;102033.63;5048992;28;20116;-81
2021/03/25 05:32:00;;;;;;;108.00;49.33;;;;;;;10.58;64.44;102039.84;5048874;28;20385;-81
2021/03/25 05:34:28;;;;;;;104.20;50.95;;;;;;;10.61;64.37;102037.16;5049051;28;20064;-81
2021/03/25 05:36:58;;;;;;;99.35;48.00;;;;;;;10.64;64.07;102037.19;5047943;28;20391;-81
2021/03/25 05:39:26;;;;;;;101.18;48.10;;;;;;;10.61;64.31;102047.78;5048647;28;20112;-81
2021/03/25 05:45:11;;;;;;;108.13;50.55;;;;;;;10.60;64.72;102051.28;5060373;28;20414;-80
2021/03/25 05:47:56;;;;;;;103.78;48.15;;;;;;;10.57;64.42;102055.75;5033946;28;20037;-82
2021/03/25 05:56:54;;;;;;;89.38;44.30;;;;;;;10.56;64.73;102054.84;5080714;28;20415;-81
2021/03/25 05:59:26;;;;;;;88.15;42.80;;;;;;;10.56;64.58;102062.78;5068461;28;20032;-80
2021/03/25 06:02:19;;;;;;;96.85;46.45;;;;;;;10.62;64.75;102060.13;5068984;28;20087;-83
2021/03/25 06:05:13;;;;;;;96.50;45.17;;;;;;;10.64;64.34;102047.78;5062003;28;20108;-81
2021/03/25 06:07:55;;;;;;;89.38;44.50;;;;;;;10.65;64.41;102046.91;5062991;28;20480;-81
2021/03/25 06:13:42;;;;;;;89.53;45.10;;;;;;;10.75;64.63;102054.84;5079568;27;20423;-83
2021/03/25 06:16:27;;;;;;;90.97;46.30;;;;;;;10.74;64.50;102047.75;5056091;28;20033;-83
2021/03/25 06:31:40;;;;;;;79.70;41.72;;;;;;;10.65;64.49;102054.84;5108084;27;20380;-83
2021/03/25 06:34:31;;;;;;;83.85;42.70;;;;;;;10.58;64.50;102068.09;5083164;28;20046;-81
2021/03/25 06:45:10;;;;;;;94.10;48.03;;;;;;;10.74;65.23;102068.97;5038029;28;20436;-81
2021/03/25 06:50:35;;;;;;;96.88;45.50;;;;;;;10.90;65.45;102080.44;5076571;28;20407;-81
2021/03/25 06:53:31;;;;;;;96.32;48.65;;;;;;;10.99;66.02;102085.72;5058156;28;20029;-81
2021/03/25 06:58:55;;;;;;;83.85;44.30;;;;;;;11.22;64.85;102082.16;5076325;28;20399;-83
2021/03/25 07:01:34;;;;;;;95.72;49.00;;;;;;;11.28;65.08;102072.38;5062409;28;20427;-84
2021/03/25 07:04:22;;;;;;;80.13;42.50;;;;;;;11.25;64.93;102085.69;5056770;28;20037;-83
2021/03/25 07:06:50;;;;;;;88.22;45.72;;;;;;;11.26;64.82;102073.28;5042853;28;20051;-83
2021/03/25 07:09:19;;;;;;;84.45;44.88;;;;;;;11.35;65.03;102072.38;5041815;28;20531;-83
2021/03/25 07:11:45;;;;;;;83.97;44.53;;;;;;;11.46;64.82;102073.22;5037807;28;20033;-84
2021/03/25 07:14:21;;;;;;;95.22;49.13;;;;;;;11.54;64.82;102074.06;5038176;28;20038;-83
2021/03/25 07:16:50;;;;;;;73.85;43.72;;;;;;;11.62;64.68;102077.56;5045668;28;20026;-83
2021/03/25 07:19:20;;;;;;;90.95;46.65;;;;;;;11.60;64.88;102084.66;5048411;28;20503;-83
2021/03/25 07:21:50;;;;;;;80.65;45.70;;;;;;;11.68;64.41;102083.75;5045479;28;20032;-84
2021/03/25 07:27:10;;;;;;;85.72;44.63;;;;;;;11.82;64.16;102092.50;5080223;27;20388;-82
2021/03/25 07:29:39;;;;;;;83.30;43.78;;;;;;;11.80;64.29;102086.31;5068959;28;20518;-82
2021/03/25 07:34:50;;;;;;;83.55;42.42;;;;;;;11.85;64.26;102088.97;5077934;28;20408;-83
2021/03/25 07:37:35;;;;;;;92.65;44.22;;;;;;;11.97;63.90;102089.84;5068693;28;20032;-83
2021/03/25 07:40:06;;;;;;;75.85;42.20;;;;;;;12.02;63.78;102091.56;5070586;28;20048;-84
2021/03/25 07:42:36;;;;;;;82.57;40.95;;;;;;;12.04;64.12;102100.41;5068808;28;20033;-83
2021/03/25 07:45:25;;;;;;;80.05;42.22;;;;;;;11.96;64.07;102097.78;5068362;28;20028;-84
2021/03/25 07:47:53;;;;;;;76.35;41.60;;;;;;;11.97;64.21;102099.56;5066997;28;20032;-84
2021/03/25 07:50:30;;;;;;;82.32;41.35;;;;;;;11.85;64.28;102100.47;5070085;28;20464;-83
2021/03/25 07:52:57;;;;;;;73.47;40.13;;;;;;;12.07;63.48;102100.38;5067867;28;20439;-84
2021/03/25 07:55:27;;;;;;;87.70;42.92;;;;;;;12.04;63.49;102103.06;5069794;28;20552;-85
2021/03/25 07:57:55;;;;;;;76.05;42.03;;;;;;;12.10;63.50;102108.31;5068259;28;20484;-85
2021/03/25 08:03:21;;;;;;;78.30;42.45;;;;;;;12.14;63.32;102104.78;5083153;27;20809;-83
2021/03/25 08:05:50;;;;;;;73.90;40.15;;;;;;;12.13;63.41;102110.97;5049893;28;20033;-83
2021/03/25 08:08:30;;;;;;;75.50;39.45;;;;;;;12.13;63.50;102114.50;5050194;28;20326;-84
2021/03/25 08:11:19;;;;;;;77.85;39.47;;;;;;;12.32;63.30;102110.84;5049113;28;20507;-84
2021/03/25 08:14:08;;;;;;;69.53;38.72;;;;;;;12.29;63.06;102112.63;5049712;28;20119;-83
2021/03/25 08:16:45;;;;;;;69.18;41.33;;;;;;;12.28;63.98;102102.03;5049140;28;20475;-83
2021/03/25 08:19:35;;;;;;;73.65;40.55;;;;;;;12.53;62.98;102113.34;5049727;28;20802;-83
2021/03/25 08:28:01;;;;;;;71.55;40.35;;;;;;;12.77;62.71;102116.69;5050018;28;20730;-82
2021/03/25 08:41:42;;;;;;;64.07;37.30;;;;;;;13.11;61.71;102119.06;5084155;27;20392;-81
2021/03/25 08:44:32;;;;;;;68.20;36.55;;;;;;;13.16;61.36;102117.22;5065271;28;20112;-83
2021/03/25 08:47:22;;;;;;;66.40;36.28;;;;;;;13.31;60.96;102121.50;5059196;28;20036;-84
2021/03/25 08:50:14;;;;;;;64.07;37.45;;;;;;;13.32;60.84;102119.72;5070180;28;20033;-84
2021/03/25 08:52:43;;;;;;;69.82;39.40;;;;;;;13.34;60.78;102120.59;5065109;28;20120;-83
2021/03/25 08:55:24;;;;;;;72.45;41.08;;;;;;;13.23;62.29;102118.94;5058489;28;20122;-83
2021/03/25 08:57:56;;;;;;;71.05;38.92;;;;;;;13.39;61.53;102121.44;5055564;28;20394;-83
2021/03/25 09:00:25;;;;;;;;;;;;;;;13.43;62.00;102123.16;5059770;28;20045;-84
2021/03/25 09:02:59;;;;;;;76.18;40.25;;;;;;;13.22;62.35;102126.91;5057704;28;19917;-84
2021/03/25 09:08:15;;;;;;;59.50;33.42;;;;;;;13.29;62.58;102112.63;5068952;27;20409;-83
2021/03/25 09:10:46;;;;;;;50.53;30.42;;;;;;;13.45;62.69;102115.19;5058780;28;20098;-83
2021/03/25 09:13:15;;;;;;;55.28;32.05;;;;;;;13.50;62.50;102122.19;5057295;28;20029;-84
2021/03/25 09:15:43;;;;;;;56.70;31.25;;;;;;;13.49;62.57;102114.25;5038916;28;20061;-84
2021/03/25 09:18:17;;;;;;;64.30;35.88;;;;;;;13.33;62.73;102124.13;5039528;28;20033;-83
2021/03/25 09:20:47;;;;;;;62.10;34.17;;;;;;;13.43;62.45;102115.19;5039174;28;20029;-84
2021/03/25 09:29:06;;;;;;;58.10;32.25;;;;;;;13.78;61.63;102105.88;5108850;27;20846;-84
2021/03/25 09:37:19;;;;;;;48.13;28.77;;;;;;;13.85;61.84;102112.88;5030095;28;20179;-82
2021/03/25 09:40:05;;;;;;;33.25;21.95;;;;;;;13.53;62.05;102118.63;5008195;28;20030;-82
2021/03/25 09:42:32;;;;;;;33.10;20.65;;;;;;;13.18;63.27;102126.06;4989619;28;20041;-82
2021/03/25 09:44:58;;;;;;;35.40;20.45;;;;;;;13.31;62.79;102121.50;4984290;28;20535;-82
2021/03/25 09:47:33;;;;;;;31.33;19.55;;;;;;;13.42;62.29;102122.28;4999737;28;20390;-82
2021/03/25 09:53:02;;;;;;;28.88;19.27;;;;;;;13.31;63.31;102116.19;5078114;27;20970;-83
2021/03/25 09:55:34;;;;;;;30.33;19.38;;;;;;;13.39;63.17;102124.09;5050868;28;20041;-84
2021/03/25 09:58:01;;;;;;;31.75;20.35;;;;;;;13.32;63.03;102120.59;5047427;28;20493;-84
2021/03/25 10:03:08;;;;;;;31.83;19.13;;;;;;;13.36;62.69;102121.47;5080480;27;20900;-83
2021/03/25 10:05:39;;;;;;;33.97;22.73;;;;;;;13.20;63.11;102115.41;5048298;28;20110;-85
2021/03/25 10:10:59;;;;;;;43.85;23.52;;;;;;;13.33;62.79;102117.03;5075879;27;20417;-82
2021/03/25 10:19:45;;;;;;;43.50;25.23;;;;;;;13.39;62.56;102110.78;5070741;27;20709;-82
2021/03/25 10:22:19;;;;;;;51.97;28.83;;;;;;;13.40;62.92;102112.56;5054095;28;20500;-87
2021/03/25 10:24:55;;;;;;;55.88;28.67;;;;;;;13.19;64.12;102130.47;5058628;28;20107;-85
2021/03/25 10:27:31;;;;;;;58.08;31.38;;;;;;;13.21;63.59;102118.06;5048896;28;20132;-83
2021/03/25 10:30:03;;;;;;;56.90;29.52;;;;;;;13.13;63.93;102125.22;5049031;28;20107;-83
2021/03/25 10:32:35;;;;;;;60.00;30.35;;;;;;;13.02;64.56;102121.78;5050618;28;20061;-83
2021/03/25 10:35:04;;;;;;;;;;;;;;;13.25;63.43;102122.44;5049808;28;20026;-85
2021/03/25 10:40:38;;;;;;;67.05;32.30;;;;;;;13.37;63.35;102118.81;5064043;28;20416;-83
2021/03/25 10:43:07;;;;;;;66.88;33.13;;;;;;;13.36;63.78;102124.13;5059407;28;20040;-83
2021/03/25 10:48:38;;;;;;;73.05;34.67;;;;;;;13.24;63.76;102115.34;5070717;28;20431;-83
2021/03/25 10:51:22;;;;;;;65.00;32.42;;;;;;;12.99;64.61;102129.81;5070100;28;20476;-83
2021/03/25 10:56:33;;;;;;;77.57;36.17;;;;;;;13.20;63.99;102132.25;5090330;28;20410;-84
2021/03/25 11:01:56;;;;;;;64.03;33.17;;;;;;;13.10;63.31;102133.25;5090175;27;20476;-84
2021/03/25 11:04:26;;;;;;;75.18;34.35;;;;;;;13.36;62.69;102138.31;5065912;28;20033;-84
2021/03/25 11:06:54;;;;;;;66.82;32.85;;;;;;;13.29;62.91;102133.06;5050266;28;20060;-84
2021/03/25 11:12:22;;;;;;;56.58;30.77;;;;;;;13.38;62.64;102122.34;5090277;27;20400;-83
2021/03/25 11:14:56;;;;;;;61.22;30.38;;;;;;;13.48;62.18;102113.34;5058549;28;20029;-84
2021/03/25 11:17:31;;;;;;;53.30;28.13;;;;;;;13.70;62.04;102118.41;5050127;28;20501;-83
2021/03/25 11:20:01;;;;;;;55.75;27.05;;;;;;;13.73;61.77;102119.28;5050858;28;20079;-84
2021/03/25 11:22:31;;;;;;;49.13;27.55;;;;;;;13.84;61.10;102118.22;5049651;28;20049;-85
2021/03/25 11:25:00;;;;;;;47.75;25.58;;;;;;;13.85;60.32;102117.34;5047583;28;20109;-83
2021/03/25 11:27:28;;;;;;;45.88;26.00;;;;;;;14.02;60.07;102115.31;5049757;28;20104;-83
2021/03/25 11:32:51;;;;;;;46.85;26.15;;;;;;;13.91;59.74;102118.13;5080842;28;20385;-84
2021/03/25 11:46:36;;;;;;;35.20;20.25;;;;;;;14.95;56.55;102107.66;5111410;27;20367;-86
2021/03/25 11:49:14;;;;;;;30.23;18.05;;;;;;;15.34;55.00;102105.16;5110929;28;20036;-86
2021/03/25 11:52:00;;;;;;;33.78;20.80;;;;;;;15.40;53.35;102105.00;5111877;27;20032;-85
2021/03/25 11:54:30;;;;;;;29.40;19.17;;;;;;;15.41;53.74;102109.44;5111340;28;20030;-86
2021/03/25 11:57:01;;;;;;;30.95;19.88;;;;;;;15.75;52.18;102095.41;5110851;28;20070;-85
2021/03/25 11:59:34;;;;;;;29.48;17.05;;;;;;;16.25;51.88;102095.19;5101440;28;20048;-85
2021/03/25 12:05:43;;;;;;;26.45;17.27;;;;;;;16.82;47.75;102088.44;5066946;27;20361;-86
2021/03/25 12:11:03;;;;;;;26.65;16.17;;;;;;;16.66;47.47;102089.75;5110627;27;20905;-84
2021/03/25 12:13:30;;;;;;;26.17;16.08;;;;;;;16.64;46.89;102086.22;5099269;28;20030;-84
2021/03/25 12:15:57;;;;;;;25.73;15.02;;;;;;;16.73;46.60;102087.78;5100353;28;20048;-85
2021/03/25 12:18:28;;;;;;;22.98;15.65;;;;;;;16.73;46.80;102093.13;5080328;28;20056;-85
2021/03/25 12:20:56;;;;;;;24.17;15.73;;;;;;;16.58;45.01;102089.91;5078391;28;20536;-85
2021/03/25 12:23:28;;;;;;;21.73;14.40;;;;;;;16.61;45.39;102091.63;5100377;28;20472;-85
2021/03/25 12:25:56;;;;;;;26.87;15.10;;;;;;;16.79;45.38;102091.16;5097887;28;20494;-85
2021/03/25 12:28:23;;;;;;;23.23;14.73;;;;;;;16.75;45.85;102094.00;5099687;28;20054;-84
2021/03/25 12:30:50;;;;;;;23.50;14.18;;;;;;;16.62;44.38;102109.47;5094009;28;20028;-84
2021/03/25 12:33:35;;;;;;;23.58;14.27;;;;;;;16.53;44.14;102090.97;5100290;28;20020;-83
2021/03/25 12:36:03;;;;;;;21.42;13.23;;;;;;;16.48;44.22;102091.94;5103133;28;20115;-85
2021/03/25 12:38:30;;;;;;;28.85;12.07;;;;;;;16.66;44.22;102089.75;5099513;28;20025;-87
2021/03/25 12:40:57;;;;;;;18.00;11.30;;;;;;;16.73;43.93;102080.63;5095354;28;20106;-85
2021/03/25 12:43:29;;;;;;;17.13;9.70;;;;;;;17.00;42.88;102077.28;5090127;28;20039;-86
2021/03/25 12:46:00;;;;;;;23.88;12.23;;;;;;;17.08;42.72;102077.97;5095039;28;20475;-86
2021/03/25 12:48:27;;;;;;;17.05;11.63;;;;;;;16.97;42.82;102072.88;5082541;28;20070;-84
2021/03/25 12:50:54;;;;;;;12.27;6.65;;;;;;;17.00;41.35;102078.19;5090319;28;20020;-85
2021/03/25 12:53:21;;;;;;;15.27;5.97;;;;;;;16.88;39.98;102087.38;5077935;28;20039;-85
2021/03/25 12:55:48;;;;;;;14.40;5.50;;;;;;;16.92;39.53;102073.03;5068647;28;20574;-85
2021/03/25 12:58:24;;;;;;;11.82;5.57;;;;;;;17.08;38.63;102073.47;5093230;28;20588;-85
2021/03/25 13:00:51;;;;;;;12.60;5.32;;;;;;;17.21;38.04;102071.34;5098070;28;20379;-85
2021/03/25 13:03:18;;;;;;;10.75;3.97;;;;;;;17.21;37.22;102071.34;5110018;28;20074;-85
2021/03/25 13:05:44;;;;;;;8.45;3.30;;;;;;;16.91;36.14;102071.28;5109891;28;20516;-84
2021/03/25 13:08:11;;;;;;;7.38;3.20;;;;;;;16.84;35.86;102066.97;5100473;28;20464;-85
2021/03/25 13:10:38;;;;;;;7.72;3.17;;;;;;;16.93;37.12;102060.50;5091840;28;20032;-85
2021/03/25 13:13:05;;;;;;;8.20;4.07;;;;;;;16.95;35.60;102064.03;5092914;28;20161;-85
2021/03/25 13:15:33;;;;;;;7.70;2.75;;;;;;;17.03;35.56;102059.34;5090256;28;20032;-85
2021/03/25 13:17:59;;;;;;;9.10;3.22;;;;;;;17.17;36.06;102063.44;5088592;28;20378;-85
2021/03/25 13:20:26;;;;;;;10.25;3.17;;;;;;;17.18;35.79;102059.84;5087753;28;20418;-84
2021/03/25 13:22:53;;;;;;;6.78;2.55;;;;;;;17.34;35.25;102049.56;5080559;28;20082;-84
2021/03/25 13:25:23;;;;;;;8.95;2.83;;;;;;;17.54;34.60;102051.66;5084052;28;20028;-85
2021/03/25 13:27:50;;;;;;;7.45;2.38;;;;;;;17.54;33.92;102070.41;5077176;28;20032;-85
2021/03/25 13:30:18;;;;;;;5.75;2.40;;;;;;;17.60;33.72;102051.47;5075207;28;20491;-84
2021/03/25 13:32:44;;;;;;;7.72;2.30;;;;;;;17.85;33.64;102046.22;5080528;28;20032;-85
2021/03/25 13:35:14;;;;;;;7.97;2.30;;;;;;;17.51;33.04;102057.09;5076806;22;20029;-85
2021/03/25 13:37:40;;;;;;;9.77;2.22;;;;;;;17.46;32.13;102060.78;5054861;28;20033;-85
2021/03/25 13:40:08;;;;;;;4.97;1.88;;;;;;;17.72;32.05;102056.47;5035908;28;20539;-88
2021/03/25 13:42:35;;;;;;;5.75;1.50;;;;;;;17.89;32.86;102052.38;5045548;28;20072;-87
2021/03/25 13:45:03;;;;;;;4.97;1.63;;;;;;;17.62;30.66;102060.34;5040183;28;20025;-83
2021/03/25 13:47:29;;;;;;;16.85;7.43;;;;;;;17.54;28.60;102055.19;5028745;28;20025;-86
2021/03/25 13:49:55;;;;;;;9.23;1.90;;;;;;;17.27;29.27;102047.06;5015804;28;20061;-86
2021/03/25 13:52:21;;;;;;;4.15;1.38;;;;;;;17.24;29.52;102059.66;5027432;28;21377;-86
2021/03/25 13:54:48;;;;;;;7.90;1.92;;;;;;;17.30;30.65;102052.31;5028597;28;20448;-85
2021/03/25 13:57:15;;;;;;;6.78;1.77;;;;;;;17.40;30.24;102058.28;5034428;28;20053;-85
2021/03/25 13:59:43;;;;;;;7.63;1.65;;;;;;;17.46;29.45;102047.41;5034179;28;20025;-87
2021/03/25 14:02:10;;;;;;;4.88;1.45;;;;;;;17.26;30.15;102050.66;5035536;28;20520;-85
2021/03/25 14:04:36;;;;;;;7.15;2.00;;;;;;;17.18;30.24;102075.91;5035326;28;20032;-87
2021/03/25 14:07:03;;;;;;;6.53;1.73;;;;;;;17.12;30.10;102050.16;5036016;28;20087;-86
2021/03/25 14:09:29;;;;;;;6.78;1.58;;;;;;;17.36;30.81;102050.38;5034811;28;20048;-89
2021/03/25 14:11:55;;;;;;;3.75;1.20;;;;;;;17.58;30.67;102053.31;5035280;28;20036;-87
2021/03/25 14:14:22;;;;;;;3.95;1.52;;;;;;;17.53;30.14;102044.53;5033278;28;20087;-86
2021/03/25 14:16:48;;;;;;;6.10;1.70;;;;;;;17.43;30.29;102057.31;5035427;28;20037;-83
2021/03/25 14:19:14;;;;;;;7.45;1.55;;;;;;;17.57;30.58;102056.91;5040305;28;20021;-87
2021/03/25 14:21:40;;;;;;;7.80;1.63;;;;;;;17.58;30.79;102081.00;5037484;28;20028;-85
2021/03/25 14:24:07;;;;;;;5.95;1.38;;;;;;;17.48;31.11;102051.84;5034312;28;20026;-83
2021/03/25 14:26:33;;;;;;;7.32;1.88;;;;;;;17.79;31.25;102051.78;5038098;28;20037;-86
2021/03/25 14:29:02;;;;;;;4.38;1.77;;;;;;;17.85;30.96;102051.59;5035233;28;20037;-86
2021/03/25 14:31:30;;;;;;;5.25;1.55;;;;;;;17.92;30.75;102053.16;5017007;28;20452;-85
2021/03/25 14:33:59;;;;;;;7.32;1.42;;;;;;;17.85;30.27;102042.69;5035111;28;20026;-86